Aeroporto :
LOGIN :

Iscrizione | Disclaimer

   EN    FR    IT 

 










Sommario :    VFR   VFR Marginale   IFR   IFR Intensivo   IFR Molto Intensivo
Visibilità : 
Base nubi : 
>= 8 km
>= 3000ft
5 / 8 km
1000 / 3000 ft
1500m / 5 km
500 / 1000 ft
800 / 1500m
200 / 500 ft
< 800m
< 200 ft
Simboli :   Temporali  Nebbia  Neve Forte  Precipitazioni Forti  Vento > 20 kt
SIGMETs :   Varie  Temporali  Ghiacco  Turbolenza  Onda orograficha  Ceneri Vulcaniche






- Altitudine del aeroporto : 382 ft
- Codice IATA : CAI


HECA - Cairo Int.

ULTIMO METAR :
  • 011900Z 09016KT 9999 SCT025 30/12 Q1007 NOSIG

METARs OBSOLETI :
  • 011830Z 07013KT 9999 SCT025 31/10 Q1007 NOSIG
  • 011800Z 07014KT 9999 SCT025 32/09 Q1007 NOSIG
  • 011730Z 06015KT 9999 SCT025 32/09 Q1007 NOSIG
  • 011700Z 04009KT 9999 SCT025 34/04 Q1007 NOSIG

TAF TAF HECA
Valido dal 01 a 18 ore il 03 a 00 ore UTC


011700Z 0118/0224 06009KT 9999 SCT025
PROB30 0200/0204 VRB03KT 6000 NSC
BECMG 0204/0206 33013KT



MetMap, La meteo Aeronautica in un colpo d'occhio ! - Copyright ORBIFLY Dicembre 2007 - Disclaimer

ORBIFLY MET'MAP TEAM :

Programmazione e sviluppo : Alexandra Zaïnal
Concezione : Baudouin d'Aumeries
Aiuto per la programmazione : Marc-Olivier Méhu
Supporto tecnico e logistico : Manuel Goepfert
Aiuto per la traduzione : Arnaldo La Scala

Contatto : metmap@orbifly.com




FONTI E CREDITI :

   NOAA